OEJNHSPN

Guest
Details From OEJN - Jeddah King Abdulaziz Intl
To HSPN - PORT SUDAN
Flight Number -
Tags generated
Created
Modified
Stats Distance 174 nm / 322 km
Max Altitude 18,800 ft / 5,730 m
Waypoints 3
Social Downloads 1
Likes 0
Share VATSIM

Download

Looking for another format? Having issues loading an existing format? Contact us
Advertisement - Login to hide

Notes

Basic altitude profile: - Ascent Rate: 2500ft/min - Ascent Speed: 250kts - Cruise Altitude: 35000ft - Cruise Speed: 420kts - Descent Rate: 1500ft/min - Descent Speed: 250kts Options: - Use NATs: yes - Use PACOTS: yes - Use low airways: yes - Use high airways: yes

Route

OEJN NABTA HSPN

ID Type Via Altitude Latitude Longitude Leg Dist Tot Dist Heading (true) Name
O OEJN APT - 0 ft / 0 m 21.68132˚ 39.15565˚ - 0 nm - Jeddah King Abdulaziz Intl
NABTA FIX - 18,800 ft / 5,730 m 20.55389˚ 38.36278˚ 80 nm 80 nm 213° / 213° -
O HSPN APT - 0 ft / 0 m 19.43362˚ 37.23408˚ 92 nm 173 nm 224° / 223° PORT SUDAN

Altitude Profile

Advertisement - Login to hide

Weather


0- 5 10 15 20 25 30 35+ Temperature / ° C

Clouds and Precipitation
Forecast for 2017-12-14 06:00 UTC. Updated an hour ago

Ground ~20,000 ft ~40,000 ft Winds

OEJN

Details ICAO OEJN (JED)
Name Jeddah King Abdulaziz Intl
Region Saudi Arabia
Timezone Asia/Riyadh (UTC+3.0)
Stats Elevation 48 ft / 15 m (AMSL)
Location 21.681319° 39.155647°
Runways 3
Magnetic Variation 3.513° E

METAR

OEJN 140400Z 00000KT 9999 SCT040 23/16 Q1014 NOSIG

Decode

TAF

Not found

Departure Runways

ID Width Length Bearing (true) Bearing (mag) Surface Threshold Offset Overrun Length
16C 197 ft / 60 m 10,866 ft / 3,312 m 159.86° 156.35° Concrete 500 ft / 152 m 0 ft / 0 m
16L 148 ft / 45 m 12,151 ft / 3,704 m 159.87° 156.36° Asphalt 800 ft / 244 m 0 ft / 0 m
16R 197 ft / 60 m 12,514 ft / 3,814 m 159.86° 156.35° Concrete 0 ft / 0 m 394 ft / 120 m
34C 197 ft / 60 m 10,866 ft / 3,312 m 339.87° 336.36° Concrete 500 ft / 152 m 0 ft / 0 m
34L 197 ft / 60 m 12,514 ft / 3,814 m 339.86° 336.35° Concrete 0 ft / 0 m 394 ft / 120 m
34R 148 ft / 45 m 12,151 ft / 3,704 m 339.88° 336.37° Asphalt 800 ft / 244 m 0 ft / 0 m

HSPN

Details ICAO HSPN (PZU)
Name PORT SUDAN
Region Sudan and South Sudan
Timezone Africa/Khartoum (UTC+3.0)
Stats Elevation 135 ft / 41 m (AMSL)
Location 19.433620° 37.234079°
Runways 1
Magnetic Variation 3.474° E

METAR

HSPN 140400Z 31007KT CAVOK 25/21 Q1012

Decode

TAF

Not found

Destination Runways

ID Width Length Bearing (true) Bearing (mag) Surface Threshold Offset Overrun Length
17 148 ft / 45 m 8,241 ft / 2,512 m 167.49° 164.02° Asphalt 0 ft / 0 m 200 ft / 61 m
35 148 ft / 45 m 8,241 ft / 2,512 m 347.49° 344.02° Asphalt 0 ft / 0 m 200 ft / 61 m

Popular Alternatives